Time;durP1;ratioP1;P1;durP2;ratioP2;P2;SDS_P1;SDS_P2;PMS_P1;PMS_P2;Temp;Humidity;BMP_temperature;BMP_pressure;BME280_temperature;BME280_humidity;BME280_pressure;Samples;Min_cycle;Max_cycle;Signal;HPM_P1;HPM_P2
2022/12/06 00:01:34;;;;;;;4.40;4.10;;;;;;;0.52;100.00;101559.59;6045902;23;20058;-73
2022/12/06 00:04:04;;;;;;;5.38;4.97;;;;;;;0.56;100.00;101563.91;6085102;23;20099;-73
2022/12/06 00:06:32;;;;;;;4.05;3.55;;;;;;;0.24;100.00;101520.81;6065607;23;20010;-73
2022/12/06 00:08:59;;;;;;;4.40;4.05;;;;;;;0.69;100.00;101591.53;6088218;23;20014;-73
2022/12/06 00:11:31;;;;;;;3.70;3.50;;;;;;;0.49;100.00;101563.03;6053572;23;20064;-74
2022/12/06 00:14:00;;;;;;;5.18;4.78;;;;;;;0.21;100.00;101502.69;6086076;23;20124;-73
2022/12/06 00:16:28;;;;;;;3.92;3.63;;;;;;;0.53;100.00;101566.50;6074932;23;20014;-73
2022/12/06 00:18:55;;;;;;;3.80;3.50;;;;;;;-0.48;100.00;101387.22;6056239;23;20034;-73
2022/12/06 00:21:27;;;;;;;3.53;3.33;;;;;;;0.57;100.00;101560.50;6055809;23;20087;-73
2022/12/06 00:23:56;;;;;;;5.47;4.97;;;;;;;-0.18;100.00;101442.38;6089881;23;20030;-73
2022/12/06 00:26:24;;;;;;;3.58;3.40;;;;;;;-0.05;100.00;101456.16;6012958;23;20060;-73
2022/12/06 00:28:52;;;;;;;15.93;4.05;;;;;;;0.77;100.00;101588.97;6068512;23;20426;-72
2022/12/06 00:31:20;;;;;;;4.30;4.03;;;;;;;0.64;100.00;101564.78;6089619;23;20033;-73
2022/12/06 00:33:50;;;;;;;4.93;4.63;;;;;;;0.21;100.00;101491.53;6061934;23;20022;-74
2022/12/06 00:36:19;;;;;;;3.55;3.35;;;;;;;0.82;100.00;101602.75;6047480;23;20245;-73
2022/12/06 00:38:47;;;;;;;3.45;3.25;;;;;;;0.53;100.00;101557.03;6068127;23;20097;-73
2022/12/06 00:41:15;;;;;;;4.38;4.07;;;;;;;0.66;100.00;101551.88;6089045;23;20079;-73
2022/12/06 00:43:42;;;;;;;5.43;4.38;;;;;;;0.37;100.00;101519.09;6079193;23;20022;-74
2022/12/06 00:46:16;;;;;;;5.05;3.67;;;;;;;0.36;100.00;101500.19;6063727;23;20006;-74
2022/12/06 00:48:46;;;;;;;3.58;3.28;;;;;;;-0.42;100.00;101368.34;6060317;23;20571;-74
2022/12/06 00:51:14;;;;;;;4.78;4.38;;;;;;;0.76;100.00;101561.38;6063377;23;20366;-73
2022/12/06 00:53:43;;;;;;;6.20;3.97;;;;;;;0.91;100.00;101578.66;6050321;23;20083;-73
2022/12/06 00:56:10;;;;;;;3.58;3.38;;;;;;;0.45;100.00;101504.50;6094381;23;20022;-74
2022/12/06 00:58:36;;;;;;;3.83;3.63;;;;;;;0.54;100.00;101535.53;6053889;23;20026;-73
2022/12/06 01:01:11;;;;;;;3.42;3.22;;;;;;;0.53;100.00;101549.28;6027900;23;20042;-73
2022/12/06 01:03:38;;;;;;;3.55;3.35;;;;;;;0.05;100.00;101455.34;6075317;23;20007;-74
2022/12/06 01:06:07;;;;;;;3.58;3.38;;;;;;;0.06;100.00;101469.97;6062925;23;20092;-76
2022/12/06 01:08:35;;;;;;;4.20;3.90;;;;;;;0.88;100.00;101586.38;6057915;23;20088;-74
2022/12/06 01:11:02;;;;;;;3.85;3.63;;;;;;;0.57;100.00;101527.75;6030041;23;20093;-74
2022/12/06 01:13:29;;;;;;;3.88;3.67;;;;;;;0.61;100.00;101533.81;6071271;23;20024;-75
2022/12/06 01:15:57;;;;;;;3.83;3.63;;;;;;;0.92;100.00;101582.94;6092558;23;20051;-75
2022/12/06 01:18:23;;;;;;;5.30;4.90;;;;;;;0.79;100.00;101557.09;6076162;23;20072;-73
2022/12/06 01:20:50;;;;;;;4.32;4.05;;;;;;;0.57;100.00;101543.25;6087274;23;20051;-73
2022/12/06 01:23:16;;;;;;;3.47;3.28;;;;;;;-2.13;100.00;101086.78;6058444;23;20010;-73
2022/12/06 01:25:50;;;;;;;3.97;3.72;;;;;;;0.96;100.00;101584.69;6065791;23;20436;-73
2022/12/06 01:28:17;;;;;;;4.95;4.43;;;;;;;0.30;100.00;101482.09;6060282;23;20014;-73
2022/12/06 01:30:44;;;;;;;4.50;4.13;;;;;;;0.21;100.00;101461.41;6090325;23;20033;-73
2022/12/06 01:33:10;;;;;;;4.18;3.88;;;;;;;0.33;100.00;101471.75;6053182;23;20018;-74
2022/12/06 01:35:41;;;;;;;3.65;3.45;;;;;;;0.61;100.00;101525.22;6088923;23;20367;-73
2022/12/06 01:38:08;;;;;;;4.55;3.65;;;;;;;1.08;100.00;101584.69;6058852;23;20088;-74
2022/12/06 01:40:40;;;;;;;6.18;4.50;;;;;;;0.93;100.00;101559.69;6060911;23;20029;-73
2022/12/06 01:43:28;;;;;;;5.97;4.85;;;;;;;1.12;100.00;101583.88;6082986;23;20007;-73
2022/12/06 01:45:57;;;;;;;3.92;3.63;;;;;;;0.58;100.00;101503.69;6053553;23;20022;-73
2022/12/06 01:48:25;;;;;;;5.03;4.72;;;;;;;0.51;100.00;101473.53;6038907;23;20031;-73
2022/12/06 01:50:55;;;;;;;4.03;3.72;;;;;;;1.13;100.00;101592.47;6092849;23;20022;-73
2022/12/06 01:53:23;;;;;;;2.70;2.60;;;;;;;1.12;100.00;101580.41;6065121;23;20153;-73
2022/12/06 01:55:52;;;;;;;5.03;4.63;;;;;;;1.13;100.00;101580.41;6056443;23;20371;-73
2022/12/06 01:58:36;;;;;;;4.45;4.03;;;;;;;0.47;100.00;101466.63;6076665;23;20084;-73
2022/12/06 02:01:03;;;;;;;5.15;3.92;;;;;;;0.67;100.00;101510.56;6068422;23;20048;-73
2022/12/06 02:03:32;;;;;;;5.05;4.63;;;;;;;0.65;100.00;101499.38;6074210;23;20019;-74
2022/12/06 02:06:02;;;;;;;3.90;3.60;;;;;;;1.16;100.00;101570.09;6043687;23;20038;-73
2022/12/06 02:08:30;;;;;;;5.32;4.88;;;;;;;1.11;100.00;101569.19;6064802;23;20338;-73
2022/12/06 02:10:57;;;;;;;3.65;3.45;;;;;;;1.15;100.00;101567.50;6091163;23;20043;-73
2022/12/06 02:13:24;;;;;;;4.22;3.70;;;;;;;0.98;100.00;101552.84;6066971;23;20937;-73
2022/12/06 02:16:09;;;;;;;8.13;3.45;;;;;;;1.17;100.00;101571.78;6092988;23;20400;-74
2022/12/06 02:18:41;;;;;;;3.83;3.63;;;;;;;1.13;100.00;101564.91;6069055;23;20018;-73
2022/12/06 02:21:11;;;;;;;5.28;4.65;;;;;;;1.15;100.00;101565.75;6087108;23;20034;-73
2022/12/06 02:23:51;;;;;;;6.38;3.80;;;;;;;1.17;100.00;101568.34;6080449;23;20018;-73
2022/12/06 02:26:27;;;;;;;3.38;3.20;;;;;;;-1.43;100.00;101139.47;6091211;23;20041;-72
2022/12/06 02:29:02;;;;;;;3.55;3.25;;;;;;;1.17;100.00;101561.44;6059415;23;20042;-73
2022/12/06 02:31:38;;;;;;;4.25;4.05;;;;;;;0.21;100.00;101409.78;6091013;23;20038;-73
2022/12/06 02:34:30;;;;;;;6.20;4.85;;;;;;;1.22;100.00;101569.19;6069090;23;20077;-73
2022/12/06 02:37:10;;;;;;;3.70;3.50;;;;;;;0.30;100.00;101399.47;6059674;23;20327;-72
2022/12/06 02:39:58;;;;;;;4.30;4.03;;;;;;;0.22;100.00;101393.44;6055262;23;20030;-73
2022/12/06 02:42:32;;;;;;;4.60;3.25;;;;;;;1.25;100.00;101563.19;6089732;23;20028;-72
2022/12/06 02:45:03;;;;;;;4.65;4.35;;;;;;;1.01;100.00;101520.09;6047246;23;20014;-73
2022/12/06 02:47:34;;;;;;;7.00;4.60;;;;;;;0.59;100.00;101439.97;6062434;23;20029;-73
2022/12/06 02:50:05;;;;;;;5.15;4.75;;;;;;;1.36;100.00;101558.84;6077409;23;20369;-73
2022/12/06 02:52:35;;;;;;;3.13;3.03;;;;;;;0.96;100.00;101492.53;6088650;23;20217;-72
2022/12/06 02:55:05;;;;;;;3.65;3.45;;;;;;;1.05;100.00;101520.09;6064040;23;20029;-73
2022/12/06 02:57:41;;;;;;;4.28;3.92;;;;;;;0.78;100.00;101462.38;6084054;23;20022;-73
2022/12/06 03:00:35;;;;;;;4.80;3.85;;;;;;;1.11;100.00;101509.75;6078198;23;20030;-73
2022/12/06 03:03:40;;;;;;;4.13;3.92;;;;;;;1.45;100.00;101551.09;6038789;23;20027;-75
2022/12/06 03:06:25;;;;;;;4.28;3.92;;;;;;;1.47;100.00;101551.13;6038903;23;20105;-73
2022/12/06 03:09:17;;;;;;;4.60;4.35;;;;;;;1.04;100.00;101469.25;6091510;23;20032;-72
2022/12/06 03:12:00;;;;;;;3.80;3.53;;;;;;;0.95;100.00;101480.44;6043933;23;20057;-75
2022/12/06 03:14:49;;;;;;;6.28;4.22;;;;;;;0.73;100.00;101414.13;6087862;23;20036;-73
2022/12/06 03:17:34;;;;;;;7.18;4.45;;;;;;;-0.12;100.00;101266.06;6077860;23;20481;-74
2022/12/06 03:20:11;;;;;;;4.22;3.92;;;;;;;1.52;100.00;101542.47;6089333;23;20021;-73
2022/12/06 03:22:49;;;;;;;5.03;4.63;;;;;;;0.90;100.00;101452.88;6063303;23;20348;-73
2022/12/06 03:25:16;;;;;;;3.85;3.70;;;;;;;0.98;100.00;101453.72;6041600;23;20026;-73
2022/12/06 03:27:46;;;;;;;4.47;3.38;;;;;;;0.82;100.00;101445.13;6070666;23;20117;-73
2022/12/06 03:30:13;;;;;;;6.90;4.55;;;;;;;1.52;100.00;101539.88;6052684;23;20460;-73
2022/12/06 03:32:45;;;;;;;3.85;3.60;;;;;;;0.78;100.00;101420.16;6053136;23;20429;-74
2022/12/06 03:35:14;;;;;;;5.70;4.60;;;;;;;1.32;100.00;101502.84;6059792;23;20026;-74
2022/12/06 03:37:46;;;;;;;8.20;4.88;;;;;;;0.98;100.00;101456.31;6072950;23;20066;-72
2022/12/06 03:40:23;;;;;;;4.67;4.30;;;;;;;0.84;100.00;101412.38;6064405;23;20022;-73
2022/12/06 03:42:50;;;;;;;4.05;3.75;;;;;;;0.72;100.00;101389.16;6050494;23;20030;-75
2022/12/06 03:45:17;;;;;;;23.02;4.00;;;;;;;0.88;100.00;101418.44;6090659;23;20071;-73
2022/12/06 03:47:56;;;;;;;4.18;3.90;;;;;;;0.75;100.00;101397.75;6064856;23;20736;-74
2022/12/06 03:50:31;;;;;;;5.88;5.03;;;;;;;1.56;100.00;101525.22;6088791;23;20085;-73
2022/12/06 03:52:59;;;;;;;3.25;3.05;;;;;;;1.15;100.00;101444.25;6061032;23;20350;-73
2022/12/06 03:55:25;;;;;;;3.72;3.53;;;;;;;0.98;100.00;101414.97;6089413;23;20020;-72
2022/12/06 03:57:52;;;;;;;5.40;5.05;;;;;;;1.51;100.00;101496.78;6067478;23;20023;-74
2022/12/06 04:00:18;;;;;;;3.85;3.65;;;;;;;1.39;100.00;101494.22;6088400;23;20815;-73
2022/12/06 04:02:45;;;;;;;4.32;4.05;;;;;;;0.39;100.00;101328.91;6031035;23;20034;-72
2022/12/06 04:05:11;;;;;;;5.88;4.15;;;;;;;1.64;100.00;101531.22;6086065;23;20233;-75
2022/12/06 04:07:38;;;;;;;5.40;4.82;;;;;;;0.54;100.00;101356.44;6031063;23;20075;-75
2022/12/06 04:10:05;;;;;;;3.88;3.67;;;;;;;1.69;100.00;101544.19;6091292;23;20075;-73
2022/12/06 04:15:20;;;;;;;3.65;3.40;;;;;;;0.92;100.00;101464.06;6055935;23;20026;-74
2022/12/06 04:23:02;;;;;;;3.28;3.08;;;;;;;1.74;100.00;101521.72;6084600;23;20014;-74
2022/12/06 04:23:20;;;;;;;4.55;4.15;;;;;;;1.12;100.00;101420.13;6052203;23;20035;-76
2022/12/06 04:25:46;;;;;;;5.00;4.47;;;;;;;1.43;100.00;101470.06;6085859;23;20409;-74
2022/12/06 04:39:18;;;;;;;3.60;3.40;;;;;;;1.38;100.00;101448.50;5960972;23;20087;-73
2022/12/06 04:44:32;;;;;;;4.20;3.80;;;;;;;0.92;100.00;101351.25;6080704;23;20025;-74
2022/12/06 04:46:59;;;;;;;4.57;4.20;;;;;;;1.15;100.00;101382.22;6064001;23;20026;-74
2022/12/06 04:49:26;;;;;;;4.68;4.28;;;;;;;0.55;100.00;101278.13;6068174;23;20038;-76
2022/12/06 04:51:53;;;;;;;3.55;3.25;;;;;;;1.66;100.00;101469.16;6090605;23;20088;-75
2022/12/06 04:54:20;;;;;;;5.00;4.63;;;;;;;0.96;100.00;101336.56;6051602;23;20371;-74
2022/12/06 04:56:47;;;;;;;5.13;4.22;;;;;;;0.76;100.00;101323.69;6088286;23;20026;-75
2022/12/06 04:59:13;;;;;;;5.35;4.95;;;;;;;1.15;100.00;101389.97;6058105;23;20533;-75
2022/12/06 05:01:39;;;;;;;3.75;3.55;;;;;;;1.97;100.00;101508.75;6089755;23;20026;-74
2022/12/06 05:04:06;;;;;;;4.90;3.95;;;;;;;1.99;100.00;101499.25;6065144;23;20042;-73
2022/12/06 05:06:33;;;;;;;5.97;3.95;;;;;;;1.84;100.00;101471.66;6054934;23;20512;-74
2022/12/06 05:08:59;;;;;;;5.60;4.57;;;;;;;0.59;100.00;101260.03;6057966;23;20038;-72
2022/12/06 05:11:26;;;;;;;8.25;3.40;;;;;;;1.23;100.00;101368.41;6062215;23;20018;-73
2022/12/06 05:13:52;;;;;;;5.05;4.65;;;;;;;0.85;100.00;101307.34;6067748;23;20096;-75
2022/12/06 05:16:19;;;;;;;3.10;3.00;;;;;;;1.34;100.00;101387.31;6087553;23;20026;-74
2022/12/06 05:18:45;;;;;;;4.57;4.28;;;;;;;1.47;100.00;101414.88;6072854;23;20034;-74
2022/12/06 05:21:14;;;;;;;4.38;4.07;;;;;;;2.08;100.00;101501.78;6065470;23;20416;-73
2022/12/06 05:23:41;;;;;;;4.85;4.50;;;;;;;2.07;100.00;101500.06;6067097;23;20018;-73
2022/12/06 05:26:10;;;;;;;3.78;3.58;;;;;;;2.08;100.00;101493.16;6054681;23;20529;-73
2022/12/06 05:28:38;;;;;;;5.07;4.50;;;;;;;2.08;100.00;101494.00;6021436;23;20655;-74
2022/12/06 05:31:04;;;;;;;4.05;3.85;;;;;;;2.09;100.00;101506.09;6087610;23;20018;-74
2022/12/06 05:33:31;;;;;;;4.03;3.72;;;;;;;1.74;100.00;101432.00;6078079;23;20038;-75
2022/12/06 05:35:57;;;;;;;3.75;3.55;;;;;;;0.91;100.00;101382.25;6063457;23;20053;-74
2022/12/06 05:38:24;;;;;;;4.00;3.80;;;;;;;1.85;100.00;101437.16;6083685;23;20076;-74
2022/12/06 05:40:51;;;;;;;4.15;3.75;;;;;;;1.44;100.00;101386.41;6083179;23;20030;-73
2022/12/06 05:43:17;;;;;;;4.32;4.03;;;;;;;1.83;100.00;101438.91;6070826;23;20036;-76
2022/12/06 05:45:44;;;;;;;4.03;3.70;;;;;;;0.93;100.00;101329.69;6094420;23;20040;-75
2022/12/06 05:48:10;;;;;;;4.45;4.25;;;;;;;1.67;100.00;101412.22;6079066;23;20027;-74
2022/12/06 05:50:37;;;;;;;3.85;3.65;;;;;;;2.23;100.00;101497.41;6049237;23;20098;-72
2022/12/06 05:53:03;;;;;;;3.78;3.58;;;;;;;1.87;100.00;101424.22;6063330;23;20028;-73
2022/12/06 05:55:30;;;;;;;5.40;4.75;;;;;;;2.25;100.00;101488.75;6075362;23;20405;-72
2022/12/06 05:57:56;;;;;;;8.98;4.32;;;;;;;2.26;100.00;101482.69;6058897;23;20081;-76
2022/12/06 06:00:23;;;;;;;3.88;3.67;;;;;;;1.83;100.00;101417.34;6065254;23;20025;-75
2022/12/06 06:02:50;;;;;;;3.20;3.00;;;;;;;2.19;100.00;101481.03;6024231;23;20023;-73
2022/12/06 06:05:16;;;;;;;4.97;4.68;;;;;;;1.51;100.00;101358.84;6072264;23;20014;-73
2022/12/06 06:07:43;;;;;;;4.63;4.20;;;;;;;0.91;100.00;101264.25;6034062;23;20461;-74
2022/12/06 06:10:10;;;;;;;8.70;5.28;;;;;;;1.69;100.00;101394.13;6071721;23;20034;-73
2022/12/06 06:12:36;;;;;;;5.10;4.70;;;;;;;2.32;100.00;101482.66;6056580;23;20093;-73
2022/12/06 06:15:06;;;;;;;7.13;4.05;;;;;;;2.35;100.00;101484.41;6064327;23;20089;-73
2022/12/06 06:17:33;;;;;;;4.35;4.00;;;;;;;2.35;100.00;101485.25;6069220;23;20020;-73
2022/12/06 06:20:06;;;;;;;4.93;4.53;;;;;;;2.39;100.00;101479.19;6049833;23;20023;-75
2022/12/06 06:22:35;;;;;;;4.38;4.05;;;;;;;2.13;100.00;101444.81;6068168;23;20026;-73
2022/12/06 06:25:03;;;;;;;3.80;3.53;;;;;;;2.43;100.00;101489.53;6058639;23;20131;-73
2022/12/06 06:27:35;;;;;;;4.00;3.70;;;;;;;1.50;100.00;101336.41;6088238;23;20398;-74
2022/12/06 06:30:05;;;;;;;4.85;4.45;;;;;;;2.37;100.00;101477.47;6052538;23;20286;-74
2022/12/06 06:32:31;;;;;;;4.35;4.05;;;;;;;2.19;100.00;101452.53;6090555;23;20030;-73
2022/12/06 06:34:58;;;;;;;11.98;3.60;;;;;;;2.50;100.00;101489.47;6060230;23;20048;-73
2022/12/06 06:37:24;;;;;;;4.22;3.92;;;;;;;2.27;100.00;101440.41;6043883;23;20077;-75
2022/12/06 06:39:51;;;;;;;3.92;3.72;;;;;;;2.28;100.00;101441.25;6063845;23;20010;-72
2022/12/06 06:42:17;;;;;;;4.13;3.85;;;;;;;1.64;100.00;101342.38;6037207;23;20015;-73
2022/12/06 06:44:44;;;;;;;5.38;5.07;;;;;;;0.91;100.00;101212.56;6069107;23;20033;-74
2022/12/06 06:47:10;;;;;;;4.97;4.68;;;;;;;2.28;100.00;101428.31;6042634;23;20025;-73
2022/12/06 06:49:37;;;;;;;4.22;3.83;;;;;;;2.17;100.00;101412.84;6071156;23;20038;-74
2022/12/06 06:52:03;;;;;;;4.45;4.10;;;;;;;2.24;100.00;101424.03;6076593;23;20032;-74
2022/12/06 06:54:30;;;;;;;6.47;4.28;;;;;;;2.14;100.00;101415.44;6094058;23;20010;-75
2022/12/06 06:56:56;;;;;;;4.55;3.38;;;;;;;2.13;100.00;101413.72;6051831;23;20603;-74
2022/12/06 06:59:23;;;;;;;4.25;4.00;;;;;;;2.34;100.00;101455.03;6077267;23;20085;-75
2022/12/06 07:01:50;;;;;;;4.57;4.25;;;;;;;2.31;100.00;101417.94;6090410;23;20347;-74
2022/12/06 07:04:16;;;;;;;5.60;5.15;;;;;;;1.71;100.00;101325.97;6079305;23;20027;-73
2022/12/06 07:06:43;;;;;;;5.85;4.63;;;;;;;2.48;100.00;101467.03;6067444;23;20013;-74
2022/12/06 07:09:10;;;;;;;5.30;4.90;;;;;;;2.36;100.00;101429.13;6085357;23;20098;-74
2022/12/06 07:11:37;;;;;;;4.22;3.85;;;;;;;2.69;100.00;101477.28;6064834;23;20025;-73
2022/12/06 07:14:03;;;;;;;5.03;4.70;;;;;;;2.67;100.00;101468.66;6085188;23;20108;-75
2022/12/06 07:16:30;;;;;;;4.38;4.03;;;;;;;2.71;100.00;101480.72;6091407;23;20154;-75
2022/12/06 07:18:56;;;;;;;5.80;5.30;;;;;;;2.75;100.00;101478.97;6080328;23;20406;-74
2022/12/06 07:21:23;;;;;;;4.60;4.30;;;;;;;2.47;100.00;101429.06;6063976;23;20089;-73
2022/12/06 07:23:50;;;;;;;5.13;4.82;;;;;;;2.77;100.00;101485.00;6073678;23;20034;-74
2022/12/06 07:26:19;;;;;;;5.57;5.07;;;;;;;1.79;100.00;101328.50;6064095;23;20030;-73
2022/12/06 07:28:47;;;;;;;3.90;3.70;;;;;;;2.49;100.00;101427.31;6064094;23;20026;-73
2022/12/06 07:31:18;;;;;;;4.68;4.18;;;;;;;2.80;100.00;101479.78;6067251;23;20014;-73
2022/12/06 07:33:46;;;;;;;3.55;3.40;;;;;;;2.54;100.00;101426.41;6046589;23;20281;-74
2022/12/06 07:36:14;;;;;;;4.55;4.20;;;;;;;1.78;100.00;101342.28;6025068;23;20010;-75
2022/12/06 07:38:42;;;;;;;4.55;3.97;;;;;;;2.90;100.00;101484.00;6061171;23;20006;-75
2022/12/06 07:46:45;;;;;;;4.43;4.20;;;;;;;2.94;100.00;101487.44;6084583;23;20504;-75
2022/12/06 07:49:14;;;;;;;4.75;3.47;;;;;;;2.93;100.00;101486.59;6028522;23;20093;-74
2022/12/06 07:51:42;;;;;;;4.00;3.80;;;;;;;2.96;100.00;101490.88;6057945;23;20019;-74
2022/12/06 07:54:08;;;;;;;4.68;4.38;;;;;;;2.95;100.00;101489.19;6056633;23;20327;-75
2022/12/06 07:56:35;;;;;;;4.32;4.03;;;;;;;2.60;100.00;101430.69;6032216;23;20058;-75
2022/12/06 07:59:04;;;;;;;4.93;4.45;;;;;;;3.00;100.00;101496.03;6079191;23;20366;-74
2022/12/06 08:01:30;;;;;;;5.72;4.95;;;;;;;3.03;100.00;101494.28;6051995;23;20085;-75
2022/12/06 08:04:02;;;;;;;3.22;3.10;;;;;;;3.03;100.00;101486.50;6065201;23;20140;-74
2022/12/06 08:06:30;;;;;;;3.92;3.72;;;;;;;3.05;100.00;101495.13;6069963;23;20061;-76
2022/12/06 08:08:57;;;;;;;5.07;4.60;;;;;;;3.04;100.00;101491.69;6057699;23;20022;-75
2022/12/06 08:11:23;;;;;;;4.50;4.20;;;;;;;3.08;100.00;101497.72;6054946;23;20141;-75
2022/12/06 08:13:51;;;;;;;4.53;4.13;;;;;;;3.03;100.00;101500.34;6059354;23;20129;-76
2022/12/06 08:16:17;;;;;;;4.15;3.95;;;;;;;3.13;100.00;101503.72;6044850;23;20052;-74
2022/12/06 08:18:46;;;;;;;5.68;5.20;;;;;;;3.12;100.00;101500.25;6059788;23;20101;-75
2022/12/06 08:21:13;;;;;;;4.13;3.90;;;;;;;3.17;100.00;101513.22;6058610;23;20070;-75
2022/12/06 08:23:42;;;;;;;4.22;4.03;;;;;;;3.18;100.00;101523.53;6058983;23;20341;-74
2022/12/06 08:26:12;;;;;;;4.72;4.43;;;;;;;2.89;100.00;101463.31;6051188;23;20123;-73
2022/12/06 08:28:39;;;;;;;3.55;3.42;;;;;;;3.22;100.00;101519.19;6056945;23;20089;-74
2022/12/06 08:31:11;;;;;;;4.13;3.88;;;;;;;3.28;100.00;101518.28;6059715;23;20001;-74
2022/12/06 08:33:38;;;;;;;3.53;3.42;;;;;;;3.18;100.00;101492.41;6058502;23;20584;-75
2022/12/06 08:36:09;;;;;;;3.60;3.40;;;;;;;3.32;100.00;101514.78;6056551;23;20300;-76
2022/12/06 08:38:37;;;;;;;5.50;5.10;;;;;;;3.36;100.00;101511.28;6057907;23;20021;-74
2022/12/06 08:41:05;;;;;;;3.72;3.53;;;;;;;2.11;100.00;101311.91;6049315;23;20321;-74
2022/12/06 08:43:31;;;;;;;4.15;3.85;;;;;;;3.43;100.00;101519.88;6058194;23;20089;-75
2022/12/06 08:45:58;;;;;;;4.45;4.15;;;;;;;3.50;100.00;101517.22;6070607;23;20055;-75
2022/12/06 08:48:26;;;;;;;3.50;3.30;;;;;;;3.56;100.00;101524.94;6058168;23;22390;-74
2022/12/06 08:50:52;;;;;;;4.82;4.18;;;;;;;3.53;100.00;101517.19;6052455;23;20450;-75
2022/12/06 08:53:19;;;;;;;4.65;4.25;;;;;;;3.60;100.00;101526.63;6056586;23;20131;-75
2022/12/06 08:55:55;;;;;;;15.70;4.00;;;;;;;3.62;100.00;101530.94;6032189;23;20011;-74
2022/12/06 08:58:29;;;;;;;3.72;3.53;;;;;;;3.69;100.00;101528.28;6061813;23;20060;-74
2022/12/06 09:00:55;;;;;;;3.80;3.60;;;;;;;3.67;100.00;101534.34;6026580;23;20030;-76
2022/12/06 09:03:22;;;;;;;4.90;4.28;;;;;;;3.71;100.00;101538.63;6060054;23;20034;-76
2022/12/06 09:05:48;;;;;;;4.10;3.83;;;;;;;3.48;100.00;101487.81;6057371;23;20034;-74
2022/12/06 09:08:15;;;;;;;3.75;3.55;;;;;;;3.73;100.00;101531.72;6055869;23;20021;-74
2022/12/06 09:10:42;;;;;;;4.47;4.07;;;;;;;3.65;100.00;101517.94;6058765;23;20013;-74
2022/12/06 09:13:09;;;;;;;6.25;5.32;;;;;;;3.77;100.00;101533.41;6034486;23;20023;-75
2022/12/06 09:15:37;;;;;;;4.32;4.05;;;;;;;3.84;100.00;101544.56;6045039;23;20013;-74
2022/12/06 09:18:04;;;;;;;4.35;4.15;;;;;;;3.89;100.00;101537.56;6062721;23;20053;-75
2022/12/06 09:20:30;;;;;;;3.60;3.40;;;;;;;3.81;100.00;101519.50;6069848;23;20018;-74
2022/12/06 09:22:57;;;;;;;3.80;3.63;;;;;;;3.47;100.00;101461.88;6033810;23;20124;-75
2022/12/06 09:25:23;;;;;;;4.03;3.80;;;;;;;3.91;100.00;101541.00;6063149;23;20069;-75
2022/12/06 09:27:51;;;;;;;5.53;5.03;;;;;;;4.03;100.00;101537.41;6057386;23;20440;-75
2022/12/06 09:30:18;;;;;;;4.25;3.95;;;;;;;3.89;100.00;101517.69;6023841;23;20405;-75
2022/12/06 09:32:47;;;;;;;4.68;4.32;;;;;;;4.05;100.00;101535.66;6054217;23;20029;-74
2022/12/06 09:35:13;;;;;;;4.35;4.10;;;;;;;3.91;100.00;101505.53;6067040;23;20039;-75
2022/12/06 09:37:42;;;;;;;5.70;4.55;;;;;;;3.96;100.00;101524.50;6057072;23;20021;-75
2022/12/06 09:40:21;;;;;;;4.05;3.85;;;;;;;4.09;100.00;101524.34;6025326;23;20031;-75
2022/12/06 09:43:26;;;;;;;4.68;4.38;;;;;;;3.98;100.00;101509.75;6066901;23;20037;-75
2022/12/06 09:46:13;;;;;;;4.25;3.85;;;;;;;4.14;100.00;101545.97;6071302;23;20399;-74
2022/12/06 09:48:50;;;;;;;6.38;4.43;;;;;;;4.05;100.00;101548.66;6046407;23;20026;-73
2022/12/06 09:51:36;;;;;;;4.10;3.88;;;;;;;4.25;100.00;101535.44;6077574;23;20077;-74
2022/12/06 09:54:33;;;;;;;4.20;4.00;;;;;;;4.29;100.00;101543.19;6055514;23;20010;-74
2022/12/06 09:57:25;;;;;;;3.38;3.28;;;;;;;4.28;100.00;101541.44;6076928;23;20768;-76
2022/12/06 10:00:05;;;;;;;3.60;3.40;;;;;;;4.25;100.00;101530.22;6051666;23;20026;-75
2022/12/06 10:03:17;;;;;;;4.15;3.95;;;;;;;4.25;100.00;101531.13;6055277;23;20024;-74
2022/12/06 10:05:54;;;;;;;5.47;5.07;;;;;;;3.32;100.00;101377.31;6016492;23;20457;-74
2022/12/06 10:08:28;;;;;;;4.30;4.00;;;;;;;4.16;100.00;101520.81;6053404;23;20032;-75
2022/12/06 10:10:58;;;;;;;4.05;3.85;;;;;;;4.06;100.00;101509.69;6084755;23;20164;-74
2022/12/06 10:13:49;;;;;;;3.70;3.50;;;;;;;4.02;100.00;101483.78;6024936;23;20545;-75
2022/12/06 10:16:34;;;;;;;3.53;3.28;;;;;;;4.37;100.00;101517.06;6070052;23;20052;-75
2022/12/06 10:19:19;;;;;;;4.88;4.57;;;;;;;4.40;100.00;101515.31;6087436;23;20021;-75
2022/12/06 10:22:10;;;;;;;4.10;3.90;;;;;;;3.96;100.00;101448.34;6073123;23;20029;-75
2022/12/06 10:24:49;;;;;;;3.75;3.55;;;;;;;4.26;100.00;101493.00;6026528;23;20455;-75
2022/12/06 10:27:30;;;;;;;5.97;5.57;;;;;;;4.40;100.00;101504.91;6075655;23;20018;-74
2022/12/06 10:30:13;;;;;;;4.18;3.97;;;;;;;4.06;100.00;101446.50;6070038;23;20006;-75
2022/12/06 10:33:04;;;;;;;;;;;;;;;4.31;100.00;101496.38;6083266;23;20079;-75
2022/12/06 10:35:43;;;;;;;5.40;3.80;;;;;;;4.32;100.00;101492.91;6020498;23;19925;-75
2022/12/06 10:38:09;;;;;;;4.95;4.50;;;;;;;3.40;100.00;101350.38;6053949;23;20018;-75
2022/12/06 10:40:52;;;;;;;4.60;4.20;;;;;;;4.39;100.00;101498.00;6084129;23;20187;-75
2022/12/06 10:43:48;;;;;;;8.75;3.92;;;;;;;4.45;100.00;101494.47;6072523;23;20485;-74
2022/12/06 10:49:34;;;;;;;4.20;4.00;;;;;;;3.78;100.00;101382.78;6076619;23;20030;-75
2022/12/06 10:52:23;;;;;;;3.70;3.50;;;;;;;4.11;100.00;101429.09;6087413;23;20372;-75
2022/12/06 10:55:14;;;;;;;4.45;4.13;;;;;;;4.08;100.00;101439.53;6064928;23;20010;-75
2022/12/06 10:57:53;;;;;;;4.30;4.05;;;;;;;4.47;100.00;101494.41;6057091;23;20029;-75
2022/12/06 11:00:21;;;;;;;4.18;3.83;;;;;;;4.50;100.00;101490.03;6066629;23;20025;-75
2022/12/06 11:03:24;;;;;;;4.10;3.80;;;;;;;4.50;100.00;101484.84;6083540;23;20107;-74
2022/12/06 11:05:59;;;;;;;3.95;3.60;;;;;;;4.42;100.00;101467.66;6071061;23;20217;-75
2022/12/06 11:08:32;;;;;;;4.15;3.85;;;;;;;4.54;100.00;101478.72;6067940;23;20088;-75
2022/12/06 11:11:02;;;;;;;4.07;3.88;;;;;;;4.54;100.00;101477.88;6070741;23;20053;-75
2022/12/06 11:13:41;;;;;;;4.00;3.80;;;;;;;4.05;100.00;101411.00;6087096;23;20018;-75
2022/12/06 11:16:14;;;;;;;4.03;3.83;;;;;;;4.58;100.00;101472.59;6048203;23;20033;-75
2022/12/06 11:18:41;;;;;;;4.70;4.25;;;;;;;4.30;100.00;101414.13;6060021;23;20021;-75
2022/12/06 11:21:39;;;;;;;4.25;4.03;;;;;;;4.73;100.00;101481.94;6054976;23;20022;-75
2022/12/06 11:24:22;;;;;;;4.38;4.18;;;;;;;4.29;100.00;101413.28;6085842;23;20017;-75
2022/12/06 11:27:14;;;;;;;5.85;5.32;;;;;;;4.78;100.00;101482.69;6073295;23;20083;-75
2022/12/06 11:29:47;;;;;;;4.55;4.25;;;;;;;4.10;100.00;101378.03;6082970;23;20025;-75
2022/12/06 11:32:15;;;;;;;4.93;4.47;;;;;;;4.56;100.00;101445.75;6059735;23;20045;-74
2022/12/06 11:34:47;;;;;;;5.40;5.00;;;;;;;4.43;100.00;101413.06;6087416;23;20010;-74
2022/12/06 11:37:19;;;;;;;4.10;3.58;;;;;;;4.91;100.00;101483.38;6059894;23;20398;-74
2022/12/06 11:40:04;;;;;;;3.63;3.42;;;;;;;4.54;100.00;101452.72;6059949;23;20033;-75
2022/12/06 11:42:31;;;;;;;3.72;3.58;;;;;;;4.71;100.00;101441.22;6065700;23;20021;-74
2022/12/06 11:45:09;;;;;;;5.50;5.00;;;;;;;4.57;100.00;101418.03;6085076;23;20001;-75
2022/12/06 11:47:35;;;;;;;4.82;4.47;;;;;;;4.49;100.00;101425.09;6047571;23;20030;-76
2022/12/06 11:50:03;;;;;;;4.32;4.07;;;;;;;4.63;100.00;101436.16;6060590;23;20021;-75
2022/12/06 11:52:44;;;;;;;3.55;3.35;;;;;;;5.03;100.00;101484.03;6056238;23;20022;-74
2022/12/06 11:55:17;;;;;;;4.78;4.47;;;;;;;4.52;100.00;101394.72;6083471;23;20026;-75
2022/12/06 11:57:50;;;;;;;4.70;4.40;;;;;;;4.95;100.00;101461.63;6068412;23;20022;-74
2022/12/06 12:00:25;;;;;;;4.85;4.55;;;;;;;5.02;100.00;101487.53;6085390;23;20108;-74
2022/12/06 12:02:54;;;;;;;4.50;4.10;;;;;;;5.18;100.00;101484.66;6066770;23;20072;-74
2022/12/06 12:05:29;;;;;;;4.88;4.57;;;;;;;5.21;100.00;101475.91;6084765;23;20021;-75
2022/12/06 12:08:01;;;;;;;5.00;4.60;;;;;;;5.25;100.00;101485.41;6056646;23;20512;-75
2022/12/06 12:10:39;;;;;;;5.68;5.28;;;;;;;4.51;100.00;101387.81;6085755;23;20036;-75
2022/12/06 12:16:35;;;;;;;4.60;4.20;;;;;;;4.79;100.00;101440.22;6084537;23;20129;-75